Time;durP1;ratioP1;P1;durP2;ratioP2;P2;SDS_P1;SDS_P2;PMS_P1;PMS_P2;Temp;Humidity;BMP_temperature;BMP_pressure;BME280_temperature;BME280_humidity;BME280_pressure;Samples;Min_cycle;Max_cycle;Signal;HPM_P1;HPM_P2
2022/06/29 00:02:21;;;;;;;10.43;9.20;;;;;;;18.25;63.18;101548.84;5010885;28;20034;-62
2022/06/29 00:04:46;;;;;;;12.63;9.80;;;;;;;18.23;63.05;101553.25;5010228;28;20042;-62
2022/06/29 00:07:12;;;;;;;10.43;9.40;;;;;;;18.20;63.23;101542.66;5010070;28;20517;-62
2022/06/29 00:09:37;;;;;;;11.65;9.80;;;;;;;18.17;63.29;101550.56;5011095;28;20045;-62
2022/06/29 00:12:03;;;;;;;13.68;9.93;;;;;;;18.15;63.03;101549.69;5011819;28;20463;-62
2022/06/29 00:14:28;;;;;;;14.10;10.00;;;;;;;18.09;63.33;101541.78;5010632;28;20026;-62
2022/06/29 00:16:53;;;;;;;12.40;9.98;;;;;;;18.08;63.53;101545.28;5011329;28;20113;-59
2022/06/29 00:19:19;;;;;;;11.25;10.07;;;;;;;18.06;63.19;101549.63;5009988;28;20440;-60
2022/06/29 00:21:44;;;;;;;11.98;10.70;;;;;;;18.03;63.34;101541.72;5010441;28;20101;-60
2022/06/29 00:24:09;;;;;;;11.98;10.68;;;;;;;18.00;63.40;101545.25;5011623;28;20041;-59
2022/06/29 00:26:34;;;;;;;15.85;10.75;;;;;;;17.94;63.50;101539.06;5011320;28;20022;-60
2022/06/29 00:29:00;;;;;;;12.20;10.90;;;;;;;17.93;63.67;101532.00;5009284;28;20473;-60
2022/06/29 00:31:25;;;;;;;13.50;11.02;;;;;;;17.90;63.73;101533.78;5010581;28;20547;-60
2022/06/29 00:33:50;;;;;;;14.75;11.00;;;;;;;17.87;63.77;101541.66;5010441;28;20032;-59
2022/06/29 00:36:16;;;;;;;13.43;11.30;;;;;;;17.80;64.12;101539.84;5010272;28;20451;-60
2022/06/29 00:38:41;;;;;;;14.93;11.52;;;;;;;17.82;64.34;101531.94;5010955;28;20034;-60
2022/06/29 00:41:06;;;;;;;14.73;11.50;;;;;;;17.79;64.36;101535.44;5008762;28;20018;-60
2022/06/29 00:43:42;;;;;;;13.27;11.65;;;;;;;17.77;64.28;101539.84;5008932;28;20030;-60
2022/06/29 00:46:07;;;;;;;14.50;11.43;;;;;;;17.72;64.75;101534.53;5009197;28;20111;-59
2022/06/29 00:48:33;;;;;;;13.30;11.10;;;;;;;17.71;64.58;101532.78;5005227;28;20025;-60
2022/06/29 00:51:00;;;;;;;13.25;11.10;;;;;;;17.68;64.55;101532.78;5006317;28;20076;-59
2022/06/29 00:53:28;;;;;;;13.38;11.65;;;;;;;17.65;64.79;101529.22;5004866;28;20115;-59
2022/06/29 00:55:57;;;;;;;13.57;11.65;;;;;;;17.62;64.76;101518.66;5008152;28;20026;-59
2022/06/29 00:58:25;;;;;;;15.25;12.05;;;;;;;17.58;65.02;101519.53;5007608;28;20057;-59
2022/06/29 01:00:50;;;;;;;13.18;11.45;;;;;;;17.55;64.82;101520.38;5007555;28;20267;-59
2022/06/29 01:03:15;;;;;;;14.73;11.95;;;;;;;17.53;64.75;101515.09;5010222;28;20394;-59
2022/06/29 01:05:41;;;;;;;14.85;12.30;;;;;;;17.49;65.17;101513.31;5008271;28;20069;-59
2022/06/29 01:08:06;;;;;;;13.70;11.48;;;;;;;17.45;64.97;101508.03;5007568;28;20417;-60
2022/06/29 01:10:32;;;;;;;14.40;12.73;;;;;;;17.41;65.64;101503.59;5008065;28;20469;-60
2022/06/29 01:12:57;;;;;;;14.10;12.65;;;;;;;17.37;65.26;101514.13;5009784;28;20033;-60
2022/06/29 01:15:22;;;;;;;13.27;11.93;;;;;;;17.38;65.01;101509.75;5009737;28;20120;-60
2022/06/29 01:17:48;;;;;;;13.95;12.32;;;;;;;17.33;65.14;101509.72;5010129;28;20664;-61
2022/06/29 01:20:14;;;;;;;14.55;12.60;;;;;;;17.30;65.64;101509.69;5009203;28;20057;-61
2022/06/29 01:22:40;;;;;;;19.23;13.85;;;;;;;17.29;65.73;101513.22;5009420;28;20104;-61
2022/06/29 01:25:06;;;;;;;14.20;12.63;;;;;;;17.28;65.76;101513.19;5009501;28;20112;-62
2022/06/29 01:27:31;;;;;;;16.10;13.65;;;;;;;17.25;65.71;101506.16;5010349;28;20427;-61
2022/06/29 01:29:57;;;;;;;14.68;13.27;;;;;;;17.21;65.97;101507.88;5008047;28;20106;-61
2022/06/29 01:32:22;;;;;;;15.15;13.57;;;;;;;17.20;66.28;101502.59;5008724;28;20490;-61
2022/06/29 01:34:48;;;;;;;16.95;13.40;;;;;;;17.17;66.43;101503.47;5009739;28;20405;-61
2022/06/29 01:37:14;;;;;;;15.18;13.57;;;;;;;17.14;66.39;101503.44;5006990;28;20034;-61
2022/06/29 01:39:40;;;;;;;15.45;13.88;;;;;;;17.10;66.57;101498.16;5008896;28;20030;-61
2022/06/29 01:42:08;;;;;;;15.68;14.00;;;;;;;17.08;66.27;101497.28;5006961;28;20117;-61
2022/06/29 01:44:34;;;;;;;17.83;13.25;;;;;;;17.03;66.66;101502.47;5008180;28;20025;-61
2022/06/29 01:47:00;;;;;;;17.38;14.02;;;;;;;17.03;66.27;101491.94;5008391;28;20052;-59
2022/06/29 01:49:25;;;;;;;16.40;13.73;;;;;;;17.00;66.59;101491.94;5008561;28;20021;-60
2022/06/29 01:51:51;;;;;;;15.95;14.30;;;;;;;16.99;67.04;101488.44;5007247;28;20054;-59
2022/06/29 01:54:17;;;;;;;15.40;13.90;;;;;;;16.96;67.18;101493.66;5006687;28;20033;-60
2022/06/29 01:56:42;;;;;;;15.98;14.27;;;;;;;16.94;67.45;101490.13;5008580;28;20026;-60
2022/06/29 01:59:07;;;;;;;16.42;14.68;;;;;;;16.90;67.38;101495.38;5008494;28;20451;-59
2022/06/29 02:01:33;;;;;;;16.80;15.10;;;;;;;16.88;66.86;101489.22;5008480;28;20042;-60
2022/06/29 02:03:59;;;;;;;16.38;14.80;;;;;;;16.86;67.38;101490.03;5005442;28;20509;-59
2022/06/29 02:06:25;;;;;;;17.00;15.30;;;;;;;16.81;67.32;101478.59;5009266;28;20052;-59
2022/06/29 02:08:52;;;;;;;18.77;14.85;;;;;;;16.79;67.28;101474.19;5008295;28;20081;-59
2022/06/29 02:11:17;;;;;;;17.13;14.98;;;;;;;16.77;67.02;101487.34;5008811;28;20459;-60
2022/06/29 02:13:43;;;;;;;16.88;15.25;;;;;;;16.77;67.74;101486.44;5008344;28;20029;-59
2022/06/29 02:16:08;;;;;;;16.38;14.68;;;;;;;16.76;67.77;101487.34;5008723;28;20531;-59
2022/06/29 02:18:34;;;;;;;17.48;15.60;;;;;;;16.72;67.71;101483.78;5008542;28;20025;-59
2022/06/29 02:20:59;;;;;;;17.42;15.48;;;;;;;16.69;68.13;101483.75;5009762;28;20061;-60
2022/06/29 02:23:25;;;;;;;17.27;15.43;;;;;;;16.65;67.59;101485.47;5008442;28;20306;-59
2022/06/29 02:25:50;;;;;;;17.77;15.73;;;;;;;16.64;67.62;101486.34;5008544;28;20034;-59
2022/06/29 02:28:16;;;;;;;18.10;16.08;;;;;;;16.61;68.25;101478.44;5009880;28;20349;-59
2022/06/29 02:36:09;;;;;;;18.88;16.80;;;;;;;16.55;68.81;101477.50;5008903;28;20207;-59
2022/06/29 02:38:35;;;;;;;17.98;16.27;;;;;;;16.54;68.71;101481.88;5007490;28;20189;-59
2022/06/29 02:41:01;;;;;;;19.83;17.20;;;;;;;16.50;69.27;101478.31;5009186;28;20034;-59
2022/06/29 02:43:26;;;;;;;20.92;17.15;;;;;;;16.47;69.78;101480.94;5009054;28;20026;-59
2022/06/29 02:45:52;;;;;;;18.60;16.60;;;;;;;16.48;70.10;101474.81;5009211;28;20504;-59
2022/06/29 02:48:18;;;;;;;18.00;16.10;;;;;;;16.48;69.68;101464.28;5007530;28;20033;-59
2022/06/29 02:50:43;;;;;;;19.77;16.73;;;;;;;16.48;69.51;101473.91;5009586;28;20022;-59
2022/06/29 02:53:08;;;;;;;19.95;17.70;;;;;;;16.43;69.89;101463.34;5013019;28;20040;-60
2022/06/29 02:55:34;;;;;;;19.05;17.05;;;;;;;16.40;69.49;101463.31;5013081;28;20041;-59
2022/06/29 02:57:59;;;;;;;22.33;18.05;;;;;;;16.39;69.86;101460.69;5012484;28;20030;-59
2022/06/29 03:00:24;;;;;;;18.98;17.08;;;;;;;16.37;70.16;101459.81;5009985;28;20029;-59
2022/06/29 03:02:49;;;;;;;21.77;17.45;;;;;;;16.34;69.70;101455.38;5012245;28;20121;-59
2022/06/29 03:05:15;;;;;;;19.73;17.50;;;;;;;16.34;69.77;101458.88;5012551;28;20049;-59
2022/06/29 03:07:40;;;;;;;22.02;18.00;;;;;;;16.30;69.97;101449.19;5011525;28;20132;-60
2022/06/29 03:10:06;;;;;;;20.88;18.23;;;;;;;16.29;69.92;101457.97;5012221;28;20082;-60
2022/06/29 03:12:31;;;;;;;20.08;17.95;;;;;;;16.26;70.08;101449.16;5012366;28;20041;-60
2022/06/29 03:14:56;;;;;;;19.83;17.60;;;;;;;16.23;70.66;101441.25;5011738;28;20036;-59
2022/06/29 03:17:22;;;;;;;20.17;17.13;;;;;;;16.21;70.36;101443.88;5010735;28;20445;-61
2022/06/29 03:19:47;;;;;;;21.20;18.38;;;;;;;16.17;70.48;101442.94;5011793;28;20037;-61
2022/06/29 03:22:12;;;;;;;23.10;19.02;;;;;;;16.15;70.38;101443.81;5012846;28;20045;-62
2022/06/29 03:24:39;;;;;;;22.00;19.48;;;;;;;16.15;71.05;101438.56;5011679;28;20057;-61
2022/06/29 03:27:04;;;;;;;21.77;18.42;;;;;;;16.11;71.44;101440.25;5012539;28;20047;-61
2022/06/29 03:29:30;;;;;;;20.45;18.25;;;;;;;16.11;71.09;101436.75;5011507;28;20567;-62
2022/06/29 03:31:55;;;;;;;20.17;18.00;;;;;;;16.11;71.60;101434.13;5011346;28;20026;-61
2022/06/29 03:34:21;;;;;;;21.00;18.90;;;;;;;16.07;71.54;101430.56;5010238;28;20371;-62
2022/06/29 03:36:46;;;;;;;22.90;18.63;;;;;;;16.07;71.34;101427.94;5010888;28;20026;-61
2022/06/29 03:39:11;;;;;;;21.63;19.15;;;;;;;16.05;71.88;101418.25;5011013;28;20042;-61
2022/06/29 03:41:37;;;;;;;22.30;19.17;;;;;;;16.05;71.71;101413.00;5010223;28;20030;-61
2022/06/29 03:44:02;;;;;;;21.27;19.13;;;;;;;16.05;71.17;101424.44;5012037;28;20061;-61
2022/06/29 03:46:28;;;;;;;21.77;19.45;;;;;;;16.02;71.33;101416.50;5010486;28;20022;-59
2022/06/29 03:48:53;;;;;;;22.13;19.73;;;;;;;16.00;71.39;101415.59;5010220;28;20448;-59
2022/06/29 03:51:19;;;;;;;23.60;19.35;;;;;;;15.97;71.51;101410.31;5009332;28;20117;-59
2022/06/29 03:53:44;;;;;;;22.88;19.67;;;;;;;15.97;71.46;101415.56;5011167;28;20128;-59
2022/06/29 03:56:09;;;;;;;24.13;19.83;;;;;;;15.96;71.07;101416.44;5011017;28;20064;-59
2022/06/29 03:58:34;;;;;;;21.75;19.52;;;;;;;15.96;70.99;101411.16;5010640;28;20557;-59
2022/06/29 04:01:00;;;;;;;23.15;20.75;;;;;;;15.95;71.41;101410.28;5009481;28;20117;-59
2022/06/29 04:03:25;;;;;;;22.45;20.10;;;;;;;15.93;71.09;101406.78;5010952;28;20053;-59
2022/06/29 04:05:50;;;;;;;23.38;20.80;;;;;;;15.92;71.42;101404.16;5010793;28;20465;-59
2022/06/29 04:08:17;;;;;;;22.27;19.98;;;;;;;15.89;71.46;101406.72;5011205;28;20489;-60
2022/06/29 04:10:42;;;;;;;23.02;19.90;;;;;;;15.86;72.12;101404.06;5010417;28;20037;-60
2022/06/29 04:13:08;;;;;;;22.13;19.45;;;;;;;15.85;72.24;101407.56;5011453;28;20405;-60
2022/06/29 04:15:34;;;;;;;25.40;21.67;;;;;;;15.82;72.34;101401.41;5010507;28;20477;-60
2022/06/29 04:18:00;;;;;;;24.63;22.05;;;;;;;15.82;72.76;101411.91;5010854;28;20049;-60
2022/06/29 04:23:10;;;;;;;22.52;20.15;;;;;;;15.85;73.05;101418.09;5011167;28;20076;-60
2022/06/29 04:25:35;;;;;;;24.17;21.45;;;;;;;15.79;73.76;101413.63;5004564;28;20033;-60
2022/06/29 04:28:01;;;;;;;24.27;21.70;;;;;;;15.77;73.93;101408.34;5011912;28;20083;-60
2022/06/29 04:30:26;;;;;;;24.92;22.33;;;;;;;15.78;73.91;101403.94;5010429;28;20507;-60
2022/06/29 04:32:51;;;;;;;26.85;23.98;;;;;;;15.77;73.76;101412.69;5011220;28;20033;-60
2022/06/29 04:35:17;;;;;;;25.92;22.80;;;;;;;15.74;74.45;101400.41;5007605;28;20417;-60
2022/06/29 04:37:42;;;;;;;25.60;22.95;;;;;;;15.75;74.47;101402.16;5009664;28;20401;-60
2022/06/29 04:40:08;;;;;;;26.15;23.45;;;;;;;15.75;74.39;101404.78;5010113;28;20120;-60
2022/06/29 04:42:33;;;;;;;28.02;23.80;;;;;;;15.75;74.73;101396.03;5009749;28;20034;-60
2022/06/29 04:44:59;;;;;;;30.13;25.40;;;;;;;15.76;74.55;101401.31;5010869;28;20037;-60
2022/06/29 04:47:24;;;;;;;30.13;26.75;;;;;;;15.76;74.49;101397.81;5010528;28;20068;-60
2022/06/29 04:49:49;;;;;;;31.10;27.33;;;;;;;15.76;75.09;101409.19;5009982;28;20029;-60
2022/06/29 04:52:14;;;;;;;34.95;27.73;;;;;;;15.76;75.62;101408.31;5010119;28;20073;-60
2022/06/29 04:54:40;;;;;;;31.08;27.75;;;;;;;15.77;75.41;101410.06;5009518;28;20038;-60
2022/06/29 04:57:08;;;;;;;34.13;28.55;;;;;;;15.78;75.32;101404.84;5009519;28;20029;-60
2022/06/29 04:59:33;;;;;;;32.53;27.42;;;;;;;15.78;75.10;101402.22;5007554;28;20161;-60
2022/06/29 05:01:59;;;;;;;32.33;28.83;;;;;;;15.80;75.10;101399.59;5010220;28;20052;-60
2022/06/29 05:04:24;;;;;;;32.00;28.38;;;;;;;15.81;74.76;101401.38;5007554;28;20263;-60
2022/06/29 05:06:50;;;;;;;35.83;29.95;;;;;;;15.81;75.11;101397.03;5008680;28;20099;-60
2022/06/29 05:09:15;;;;;;;36.20;29.05;;;;;;;15.82;75.66;101404.03;5010515;28;20096;-60
2022/06/29 05:11:40;;;;;;;35.33;29.88;;;;;;;15.83;75.94;101386.53;5010764;28;20030;-60
2022/06/29 05:14:06;;;;;;;35.63;30.42;;;;;;;15.82;76.23;101396.16;5007640;28;20545;-60
2022/06/29 05:16:31;;;;;;;39.40;30.85;;;;;;;15.84;76.44;101384.78;5008676;28;20032;-62
2022/06/29 05:18:56;;;;;;;35.65;29.70;;;;;;;15.84;76.42;101390.03;5009260;28;20049;-62
2022/06/29 05:21:22;;;;;;;35.63;28.63;;;;;;;15.86;76.17;101390.91;5009294;28;20030;-62
2022/06/29 05:23:47;;;;;;;34.38;29.70;;;;;;;15.89;76.05;101391.84;5009880;28;20045;-62
2022/06/29 05:26:13;;;;;;;34.90;29.13;;;;;;;15.90;75.77;101391.00;5009337;28;20033;-62
2022/06/29 05:28:39;;;;;;;35.90;29.25;;;;;;;15.91;76.42;101392.72;5012548;28;20516;-62
2022/06/29 05:31:05;;;;;;;35.60;30.00;;;;;;;15.93;76.44;101382.22;5011693;28;20022;-62
2022/06/29 05:33:36;;;;;;;37.33;30.60;;;;;;;15.97;76.08;101386.66;5010478;28;20397;-62
2022/06/29 05:36:10;;;;;;;34.42;28.48;;;;;;;15.99;75.75;101382.31;5010318;28;20492;-62
2022/06/29 05:38:37;;;;;;;37.55;29.92;;;;;;;16.01;76.70;101383.19;5008856;28;20467;-62
2022/06/29 05:41:04;;;;;;;36.63;30.23;;;;;;;16.04;76.74;101380.59;5010428;28;20018;-62
2022/06/29 05:43:30;;;;;;;38.75;31.70;;;;;;;16.08;76.43;101386.78;5010511;28;20478;-62
2022/06/29 05:45:56;;;;;;;37.28;30.77;;;;;;;16.11;77.25;101378.91;5008920;28;20021;-62
2022/06/29 05:48:22;;;;;;;38.30;30.45;;;;;;;16.14;77.35;101387.69;5009531;28;20117;-60
2022/06/29 05:50:47;;;;;;;36.35;30.05;;;;;;;16.17;78.49;101382.47;5008954;28;20108;-60
2022/06/29 05:53:14;;;;;;;34.88;28.45;;;;;;;16.22;78.38;101377.28;5023575;28;20507;-60
2022/06/29 05:55:39;;;;;;;32.92;26.98;;;;;;;16.26;77.80;101388.69;5009418;28;20508;-60
2022/06/29 05:58:05;;;;;;;31.40;27.23;;;;;;;16.31;78.43;101384.34;5010019;28;20030;-60
2022/06/29 06:00:30;;;;;;;35.63;26.70;;;;;;;16.37;78.53;101384.41;5007215;28;20087;-60
2022/06/29 06:02:55;;;;;;;34.70;25.33;;;;;;;16.43;78.40;101383.56;5018228;28;20037;-60
2022/06/29 06:05:21;;;;;;;36.00;24.92;;;;;;;16.48;78.64;101385.38;5010017;28;20053;-60
2022/06/29 06:07:46;;;;;;;31.98;23.65;;;;;;;16.56;78.50;101392.44;5016546;28;20437;-60
2022/06/29 06:10:11;;;;;;;28.67;23.38;;;;;;;16.64;78.47;101388.09;5020521;28;20444;-60
2022/06/29 06:12:37;;;;;;;32.10;23.30;;;;;;;16.70;77.43;101385.53;5008670;28;20026;-60
2022/06/29 06:15:03;;;;;;;33.17;22.20;;;;;;;16.76;77.35;101377.69;5008922;28;20041;-60
2022/06/29 06:17:28;;;;;;;31.83;22.38;;;;;;;16.82;77.43;101375.06;5008385;28;20044;-60
2022/06/29 06:19:58;;;;;;;28.92;22.40;;;;;;;16.92;76.78;101385.72;5007454;28;20038;-61
2022/06/29 06:22:24;;;;;;;31.77;22.35;;;;;;;16.98;76.82;101381.34;5009904;28;20037;-60
2022/06/29 06:24:49;;;;;;;33.72;21.83;;;;;;;17.03;76.63;101376.09;5011920;28;20108;-60
2022/06/29 06:27:15;;;;;;;27.70;21.83;;;;;;;17.14;76.92;101384.94;5012124;28;20101;-60
2022/06/29 06:29:40;;;;;;;30.88;21.60;;;;;;;17.22;76.76;101377.09;5014985;28;20034;-60
2022/06/29 06:32:06;;;;;;;31.15;21.60;;;;;;;17.30;76.59;101377.13;5012543;28;20029;-60
2022/06/29 06:34:31;;;;;;;28.80;21.90;;;;;;;17.37;76.22;101373.66;5012171;28;20091;-60
2022/06/29 06:36:59;;;;;;;25.10;19.83;;;;;;;17.46;75.94;101376.28;5018308;28;20029;-60
2022/06/29 06:39:24;;;;;;;28.75;19.85;;;;;;;17.58;76.17;101369.31;5022657;28;20064;-60
2022/06/29 06:41:49;;;;;;;26.52;19.42;;;;;;;17.65;75.54;101371.97;5023409;28;20053;-61
2022/06/29 06:44:15;;;;;;;32.22;18.08;;;;;;;17.75;74.53;101377.28;5018460;28;20447;-60
2022/06/29 06:46:41;;;;;;;27.23;19.02;;;;;;;17.86;74.79;101378.19;5023826;28;20038;-60
2022/06/29 06:49:06;;;;;;;25.63;18.13;;;;;;;17.94;74.48;101375.59;5013371;28;20029;-60
2022/06/29 06:51:32;;;;;;;25.55;17.73;;;;;;;18.00;75.14;101378.22;5012633;28;20022;-60
2022/06/29 06:53:57;;;;;;;24.42;16.33;;;;;;;18.12;75.46;101370.34;5012792;28;20029;-60
2022/06/29 06:56:22;;;;;;;21.23;15.00;;;;;;;18.21;74.56;101378.25;5012407;28;20080;-60
2022/06/29 06:58:48;;;;;;;19.42;13.30;;;;;;;18.31;73.98;101370.34;5013509;28;20037;-60
2022/06/29 07:01:13;;;;;;;21.13;12.85;;;;;;;18.41;72.91;101372.97;5012884;28;20467;-60
2022/06/29 07:03:38;;;;;;;18.48;12.07;;;;;;;18.55;73.50;101378.25;5013159;28;20103;-61
2022/06/29 07:06:06;;;;;;;16.42;11.75;;;;;;;18.65;72.74;101379.09;5013090;28;20030;-60
2022/06/29 07:08:33;;;;;;;21.70;11.80;;;;;;;18.74;72.59;101378.22;5012940;28;20504;-60
2022/06/29 07:10:59;;;;;;;18.50;10.75;;;;;;;18.84;71.66;101379.97;5010561;28;20608;-60
2022/06/29 07:13:25;;;;;;;14.93;10.25;;;;;;;18.89;72.06;101375.59;5012849;28;20036;-61
2022/06/29 07:15:50;;;;;;;15.30;9.82;;;;;;;19.06;70.99;101378.19;5012694;28;20025;-60
2022/06/29 07:18:15;;;;;;;14.18;9.30;;;;;;;19.07;70.63;101371.13;5012518;28;20053;-60
2022/06/29 07:20:41;;;;;;;13.75;8.75;;;;;;;19.14;70.58;101377.28;5011189;28;20045;-61
2022/06/29 07:23:06;;;;;;;17.17;9.13;;;;;;;19.17;71.05;101382.56;5012911;28;20432;-61
2022/06/29 07:25:32;;;;;;;14.70;8.60;;;;;;;19.18;70.51;101377.25;5011263;28;20144;-61
2022/06/29 07:27:57;;;;;;;14.93;8.63;;;;;;;19.20;70.08;101371.97;5012929;28;20050;-60
2022/06/29 07:30:22;;;;;;;12.65;8.63;;;;;;;19.20;71.35;101372.84;5012761;28;20037;-61
2022/06/29 07:32:48;;;;;;;13.20;8.73;;;;;;;19.24;70.52;101377.22;5013041;28;20144;-60
2022/06/29 07:35:13;;;;;;;13.98;8.75;;;;;;;19.35;70.42;101373.66;5012294;28;20030;-60
2022/06/29 07:37:38;;;;;;;15.15;9.77;;;;;;;19.45;70.31;101372.72;5011952;28;20477;-61
2022/06/29 07:40:04;;;;;;;15.55;8.77;;;;;;;19.52;70.98;101371.81;5012226;28;20030;-61
2022/06/29 07:42:33;;;;;;;13.75;8.93;;;;;;;19.60;69.40;101367.38;5012547;28;20511;-61
2022/06/29 07:44:58;;;;;;;11.05;8.63;;;;;;;19.69;68.83;101365.56;5012706;28;20092;-61
2022/06/29 07:47:23;;;;;;;12.95;9.30;;;;;;;19.78;69.28;101363.78;5012449;28;20026;-63
2022/06/29 07:49:49;;;;;;;11.77;9.27;;;;;;;19.84;68.29;101360.22;5012647;28;20557;-64
2022/06/29 07:52:15;;;;;;;13.43;9.35;;;;;;;19.94;68.03;101359.28;5012264;28;20105;-63
2022/06/29 07:54:40;;;;;;;13.70;8.48;;;;;;;20.03;69.22;101363.63;4999930;28;20582;-63
2022/06/29 07:57:06;;;;;;;13.60;8.70;;;;;;;20.08;68.33;101360.94;5009289;28;20029;-63
2022/06/29 07:59:31;;;;;;;12.48;7.65;;;;;;;20.15;65.24;101357.34;5012431;28;20037;-63
2022/06/29 08:01:56;;;;;;;13.20;7.47;;;;;;;20.23;64.25;101354.63;5012227;28;20033;-63
2022/06/29 08:04:21;;;;;;;13.75;7.50;;;;;;;20.30;63.87;101359.00;5011364;28;20073;-63
2022/06/29 08:06:47;;;;;;;12.38;7.40;;;;;;;20.41;65.34;101350.97;5011582;28;20022;-63
2022/06/29 08:09:12;;;;;;;13.57;7.63;;;;;;;20.52;66.89;101345.56;5011897;28;20076;-63
2022/06/29 08:11:38;;;;;;;11.05;6.78;;;;;;;20.59;66.08;101348.13;5025682;28;20029;-63
2022/06/29 08:14:03;;;;;;;9.10;6.63;;;;;;;20.69;64.78;101354.25;5013817;28;20120;-63
2022/06/29 08:16:29;;;;;;;9.32;6.65;;;;;;;20.73;66.08;101348.03;5023331;28;20025;-63
2022/06/29 08:18:55;;;;;;;10.80;6.53;;;;;;;20.81;65.08;101347.94;5010760;28;20758;-63
2022/06/29 08:21:20;;;;;;;11.13;6.72;;;;;;;20.91;66.67;101348.72;5021262;28;20112;-63
2022/06/29 08:23:45;;;;;;;10.13;5.97;;;;;;;20.96;64.72;101339.81;5012864;28;20026;-63
2022/06/29 08:26:11;;;;;;;9.55;6.78;;;;;;;21.04;62.92;101344.16;5011229;28;20501;-63
2022/06/29 08:28:36;;;;;;;12.02;7.05;;;;;;;21.08;62.25;101344.09;5010386;28;20409;-64
2022/06/29 08:31:01;;;;;;;9.63;6.05;;;;;;;21.21;63.69;101343.97;5012107;28;20104;-63
2022/06/29 08:33:27;;;;;;;11.25;6.10;;;;;;;21.28;62.06;101343.84;5011605;28;20108;-63
2022/06/29 08:35:52;;;;;;;10.98;5.20;;;;;;;21.39;62.21;101341.03;5009720;28;20367;-63
2022/06/29 08:38:18;;;;;;;9.55;5.40;;;;;;;21.45;62.01;101341.00;5009577;28;20029;-64
2022/06/29 08:40:45;;;;;;;13.07;5.18;;;;;;;21.52;60.43;101337.38;5008994;28;20088;-63
2022/06/29 08:43:15;;;;;;;14.00;5.40;;;;;;;21.64;59.42;101336.31;5009488;28;20061;-64
2022/06/29 08:45:48;;;;;;;10.75;5.43;;;;;;;21.76;60.80;101339.72;5010246;28;20109;-63
2022/06/29 08:48:15;;;;;;;11.45;5.70;;;;;;;21.83;59.60;101333.41;5010078;28;20477;-64
2022/06/29 08:50:43;;;;;;;9.30;5.70;;;;;;;21.94;60.42;101327.91;5010679;28;20112;-63
2022/06/29 08:53:13;;;;;;;8.75;5.30;;;;;;;22.02;60.33;101324.25;5011073;28;20030;-63
2022/06/29 08:55:46;;;;;;;8.82;5.03;;;;;;;22.12;56.98;101326.75;5010574;28;20057;-63
2022/06/29 08:58:24;;;;;;;6.70;4.57;;;;;;;22.21;59.42;101330.09;5011156;28;20018;-63
2022/06/29 09:00:50;;;;;;;8.40;5.22;;;;;;;22.32;59.37;101326.38;5011065;28;20108;-64
2022/06/29 09:03:18;;;;;;;8.93;4.82;;;;;;;22.50;60.58;101328.75;5009839;28;20026;-64
2022/06/29 09:05:48;;;;;;;9.53;4.60;;;;;;;22.60;58.48;101324.16;5010126;28;20036;-64
2022/06/29 09:08:17;;;;;;;8.95;4.88;;;;;;;22.73;59.03;101330.97;5011218;28;20037;-64
2022/06/29 09:10:43;;;;;;;10.82;4.80;;;;;;;22.83;57.51;101323.72;5011323;28;20101;-64
2022/06/29 09:13:08;;;;;;;8.77;5.45;;;;;;;22.93;58.94;101322.63;5011256;28;20101;-64
2022/06/29 09:15:34;;;;;;;9.73;4.72;;;;;;;23.00;55.38;101323.38;5010522;28;20428;-64
2022/06/29 09:18:01;;;;;;;7.43;4.50;;;;;;;23.09;56.16;101327.63;5010972;28;20083;-64
2022/06/29 09:20:42;;;;;;;6.25;4.72;;;;;;;23.20;57.65;101322.09;5011145;28;20177;-64
2022/06/29 09:23:09;;;;;;;7.85;4.80;;;;;;;23.29;56.65;101324.56;5010938;28;20247;-64
2022/06/29 09:25:39;;;;;;;8.57;4.60;;;;;;;23.40;54.86;101325.19;5009989;28;20026;-64
2022/06/29 09:28:36;;;;;;;7.70;4.97;;;;;;;23.47;57.57;101325.94;5009461;28;20037;-64
2022/06/29 09:31:01;;;;;;;8.07;4.80;;;;;;;23.56;54.42;101322.19;5006032;28;20117;-64
2022/06/29 09:33:29;;;;;;;7.95;4.97;;;;;;;23.62;54.99;101327.38;5009357;28;20104;-64
2022/06/29 09:36:17;;;;;;;7.67;4.83;;;;;;;23.74;58.90;101320.91;5010553;28;20033;-64
2022/06/29 09:38:43;;;;;;;8.10;5.33;;;;;;;23.81;55.49;101332.25;5009739;28;20152;-64
2022/06/29 09:41:09;;;;;;;9.75;4.93;;;;;;;23.93;55.92;101327.56;5010574;28;20484;-64
2022/06/29 09:43:40;;;;;;;8.88;4.80;;;;;;;24.00;55.03;101324.72;5010825;28;20032;-64
2022/06/29 09:46:08;;;;;;;6.88;4.68;;;;;;;24.10;54.64;101323.59;5010405;28;20493;-64
2022/06/29 09:48:35;;;;;;;6.72;4.57;;;;;;;24.15;55.60;101318.16;5009384;28;20036;-61
2022/06/29 09:51:30;;;;;;;7.03;4.70;;;;;;;24.23;54.70;101327.72;5010371;28;20111;-61
2022/06/29 09:53:48;;;;;;;6.95;4.75;;;;;;;24.29;55.60;101322.22;5008705;28;20073;-61
2022/06/29 09:56:18;;;;;;;9.13;4.60;;;;;;;24.39;54.30;101325.53;5010112;28;20117;-61
2022/06/29 09:58:48;;;;;;;7.97;4.88;;;;;;;24.48;52.88;101327.94;5009899;28;20052;-61
2022/06/29 10:04:00;;;;;;;6.75;4.25;;;;;;;24.71;49.94;101315.81;5009666;28;20528;-60
2022/06/29 10:06:26;;;;;;;8.23;4.32;;;;;;;24.81;49.39;101314.63;5010294;28;20501;-61
2022/06/29 10:08:52;;;;;;;8.63;4.95;;;;;;;24.86;53.73;101308.28;5009567;28;20497;-61
2022/06/29 10:14:36;;;;;;;5.80;3.80;;;;;;;25.11;49.38;101311.97;5010549;28;20057;-60
2022/06/29 10:17:13;;;;;;;7.65;3.60;;;;;;;25.11;50.04;101306.63;5008522;28;20030;-60
2022/06/29 10:19:42;;;;;;;5.85;3.72;;;;;;;25.20;51.33;101301.94;5010139;28;20099;-60
2022/06/29 10:22:07;;;;;;;6.25;3.80;;;;;;;25.31;52.09;101303.41;5009098;28;20187;-61
2022/06/29 10:24:36;;;;;;;7.60;3.90;;;;;;;25.41;51.09;101306.66;5009320;28;20547;-61
2022/06/29 10:27:07;;;;;;;5.50;3.47;;;;;;;25.48;45.85;101300.22;5007794;28;20390;-61
2022/06/29 10:29:33;;;;;;;4.95;3.58;;;;;;;25.50;48.05;101294.84;5010251;28;20061;-61
2022/06/29 10:32:05;;;;;;;4.93;3.90;;;;;;;25.62;50.46;101290.88;5009807;28;20137;-61
2022/06/29 10:37:09;;;;;;;5.53;3.67;;;;;;;25.73;48.92;101291.41;5009003;28;20456;-61
2022/06/29 10:39:34;;;;;;;5.45;3.65;;;;;;;25.68;48.43;101288.91;5007327;28;20030;-60
2022/06/29 10:45:01;;;;;;;5.18;3.38;;;;;;;25.77;47.85;101285.06;5001718;28;20061;-61
2022/06/29 10:47:26;;;;;;;6.93;3.55;;;;;;;25.82;48.27;101283.13;5006072;28;20072;-62
2022/06/29 10:50:13;;;;;;;4.65;3.60;;;;;;;25.91;49.51;101281.06;5009796;28;20497;-61
2022/06/29 10:52:39;;;;;;;6.47;3.67;;;;;;;25.95;45.05;101270.22;5008857;28;20037;-61
2022/06/29 10:55:06;;;;;;;6.07;3.58;;;;;;;25.98;48.22;101269.25;5009319;28;20026;-61
2022/06/29 10:57:39;;;;;;;5.30;3.83;;;;;;;26.06;49.18;101267.22;5008635;28;20048;-61
2022/06/29 11:00:09;;;;;;;7.35;3.72;;;;;;;26.13;47.01;101263.41;5009579;28;20065;-61
2022/06/29 11:02:36;;;;;;;6.03;3.45;;;;;;;26.15;46.46;101264.22;5009942;28;20036;-61
2022/06/29 11:05:01;;;;;;;6.00;3.92;;;;;;;26.17;45.03;101258.81;5008857;28;20079;-61
2022/06/29 11:12:57;;;;;;;5.57;3.47;;;;;;;26.23;47.66;101268.41;5013436;28;20101;-61
2022/06/29 11:15:42;;;;;;;5.20;3.85;;;;;;;26.20;46.79;101270.28;5013225;28;20030;-61
2022/06/29 11:18:31;;;;;;;6.38;3.90;;;;;;;26.28;45.09;101261.13;5013313;28;20595;-61
2022/06/29 11:21:04;;;;;;;6.93;4.00;;;;;;;26.24;42.80;101267.50;5011637;28;20099;-61
2022/06/29 11:23:34;;;;;;;7.00;3.95;;;;;;;26.26;47.50;101253.16;5012384;28;20033;-61
2022/06/29 11:26:01;;;;;;;8.00;3.80;;;;;;;26.22;46.41;101261.34;5012536;28;20568;-60
2022/06/29 11:28:29;;;;;;;5.30;3.72;;;;;;;26.23;45.89;101263.97;5012570;28;20473;-60
2022/06/29 11:31:05;;;;;;;8.02;4.15;;;;;;;26.20;46.51;101253.38;5011844;28;20033;-61
2022/06/29 11:33:39;;;;;;;5.70;4.03;;;;;;;26.22;45.10;101250.66;5012318;28;20029;-60
2022/06/29 11:36:06;;;;;;;6.57;4.07;;;;;;;26.20;45.35;101254.25;5012824;28;20022;-61
2022/06/29 11:38:32;;;;;;;6.25;3.92;;;;;;;26.18;46.77;101255.22;5012879;28;20029;-58